sensor_id;sensor_type;location;lat;lon;timestamp;P1;durP1;ratioP1;P2;durP2;ratioP2
9819;SDS011;4949;48.482;9.206;2022-07-23T00:01:17;7.87;;;7.17;;
9819;SDS011;4949;48.482;9.206;2022-07-23T00:06:17;8.27;;;7.57;;
9819;SDS011;4949;48.482;9.206;2022-07-23T00:11:25;7.50;;;6.90;;
9819;SDS011;4949;48.482;9.206;2022-07-23T00:16:28;7.60;;;7.10;;
9819;SDS011;4949;48.482;9.206;2022-07-23T00:21:29;8.27;;;7.53;;
9819;SDS011;4949;48.482;9.206;2022-07-23T00:26:31;8.40;;;7.60;;
9819;SDS011;4949;48.482;9.206;2022-07-23T00:31:32;7.60;;;7.10;;
9819;SDS011;4949;48.482;9.206;2022-07-23T00:36:32;8.27;;;7.57;;
9819;SDS011;4949;48.482;9.206;2022-07-23T00:41:33;8.10;;;7.43;;
9819;SDS011;4949;48.482;9.206;2022-07-23T00:46:33;7.47;;;6.87;;
9819;SDS011;4949;48.482;9.206;2022-07-23T00:51:33;9.40;;;8.67;;
9819;SDS011;4949;48.482;9.206;2022-07-23T00:56:34;8.83;;;7.90;;
9819;SDS011;4949;48.482;9.206;2022-07-23T01:01:34;9.57;;;8.73;;
9819;SDS011;4949;48.482;9.206;2022-07-23T01:06:39;9.60;;;8.70;;
9819;SDS011;4949;48.482;9.206;2022-07-23T01:11:44;9.70;;;8.80;;
9819;SDS011;4949;48.482;9.206;2022-07-23T01:16:51;10.07;;;9.10;;
9819;SDS011;4949;48.482;9.206;2022-07-23T01:21:51;8.90;;;8.30;;
9819;SDS011;4949;48.482;9.206;2022-07-23T01:26:53;9.90;;;9.07;;
9819;SDS011;4949;48.482;9.206;2022-07-23T01:31:53;10.07;;;9.37;;
9819;SDS011;4949;48.482;9.206;2022-07-23T01:36:56;8.77;;;8.13;;
9819;SDS011;4949;48.482;9.206;2022-07-23T01:41:59;9.03;;;8.10;;
9819;SDS011;4949;48.482;9.206;2022-07-23T01:47:01;8.57;;;7.83;;
9819;SDS011;4949;48.482;9.206;2022-07-23T01:52:02;7.70;;;7.17;;
9819;SDS011;4949;48.482;9.206;2022-07-23T01:57:06;9.33;;;7.13;;
9819;SDS011;4949;48.482;9.206;2022-07-23T02:02:13;8.07;;;7.47;;
9819;SDS011;4949;48.482;9.206;2022-07-23T02:07:16;8.43;;;7.83;;
9819;SDS011;4949;48.482;9.206;2022-07-23T02:12:19;8.30;;;7.70;;
9819;SDS011;4949;48.482;9.206;2022-07-23T02:17:19;7.50;;;6.90;;
9819;SDS011;4949;48.482;9.206;2022-07-23T02:22:19;14.40;;;7.93;;
9819;SDS011;4949;48.482;9.206;2022-07-23T02:27:22;8.43;;;7.83;;
9819;SDS011;4949;48.482;9.206;2022-07-23T02:32:23;8.10;;;7.47;;
9819;SDS011;4949;48.482;9.206;2022-07-23T02:37:23;8.47;;;7.77;;
9819;SDS011;4949;48.482;9.206;2022-07-23T02:42:28;9.77;;;8.97;;
9819;SDS011;4949;48.482;9.206;2022-07-23T02:47:31;9.37;;;8.67;;
9819;SDS011;4949;48.482;9.206;2022-07-23T02:52:34;9.70;;;8.90;;
9819;SDS011;4949;48.482;9.206;2022-07-23T02:57:34;9.70;;;8.80;;
9819;SDS011;4949;48.482;9.206;2022-07-23T03:02:34;9.33;;;8.50;;
9819;SDS011;4949;48.482;9.206;2022-07-23T03:07:39;10.37;;;9.37;;
9819;SDS011;4949;48.482;9.206;2022-07-23T03:12:44;10.33;;;9.43;;
9819;SDS011;4949;48.482;9.206;2022-07-23T03:17:45;10.27;;;9.27;;
9819;SDS011;4949;48.482;9.206;2022-07-23T03:22:45;10.50;;;9.60;;
9819;SDS011;4949;48.482;9.206;2022-07-23T03:27:46;10.27;;;9.40;;
9819;SDS011;4949;48.482;9.206;2022-07-23T03:32:46;9.30;;;8.43;;
9819;SDS011;4949;48.482;9.206;2022-07-23T03:37:46;8.67;;;8.00;;
9819;SDS011;4949;48.482;9.206;2022-07-23T03:42:47;9.13;;;8.43;;
9819;SDS011;4949;48.482;9.206;2022-07-23T03:47:49;8.90;;;8.20;;
9819;SDS011;4949;48.482;9.206;2022-07-23T03:52:52;8.67;;;8.03;;
9819;SDS011;4949;48.482;9.206;2022-07-23T03:57:54;8.30;;;7.63;;
9819;SDS011;4949;48.482;9.206;2022-07-23T04:02:56;8.80;;;8.20;;
9819;SDS011;4949;48.482;9.206;2022-07-23T04:07:56;8.50;;;7.90;;
9819;SDS011;4949;48.482;9.206;2022-07-23T04:12:57;9.40;;;8.40;;
9819;SDS011;4949;48.482;9.206;2022-07-23T04:17:59;9.53;;;8.83;;
9819;SDS011;4949;48.482;9.206;2022-07-23T04:23:02;9.23;;;8.43;;
9819;SDS011;4949;48.482;9.206;2022-07-23T04:28:02;9.90;;;8.90;;
9819;SDS011;4949;48.482;9.206;2022-07-23T04:33:03;10.57;;;9.57;;
9819;SDS011;4949;48.482;9.206;2022-07-23T04:38:07;10.20;;;9.30;;
9819;SDS011;4949;48.482;9.206;2022-07-23T04:43:07;9.07;;;8.30;;
9819;SDS011;4949;48.482;9.206;2022-07-23T04:48:10;10.67;;;9.77;;
9819;SDS011;4949;48.482;9.206;2022-07-23T04:53:10;9.70;;;8.90;;
9819;SDS011;4949;48.482;9.206;2022-07-23T04:58:13;10.40;;;9.60;;
9819;SDS011;4949;48.482;9.206;2022-07-23T05:03:13;9.73;;;8.93;;
9819;SDS011;4949;48.482;9.206;2022-07-23T05:08:14;9.20;;;8.50;;
9819;SDS011;4949;48.482;9.206;2022-07-23T05:13:14;9.30;;;8.50;;
9819;SDS011;4949;48.482;9.206;2022-07-23T05:18:16;10.10;;;9.30;;
9819;SDS011;4949;48.482;9.206;2022-07-23T05:23:16;10.20;;;9.30;;
9819;SDS011;4949;48.482;9.206;2022-07-23T05:28:16;11.07;;;10.10;;
9819;SDS011;4949;48.482;9.206;2022-07-23T05:33:20;9.90;;;9.07;;
9819;SDS011;4949;48.482;9.206;2022-07-23T05:38:20;9.70;;;8.90;;
9819;SDS011;4949;48.482;9.206;2022-07-23T05:43:23;10.23;;;9.23;;
9819;SDS011;4949;48.482;9.206;2022-07-23T05:48:24;10.30;;;9.50;;
9819;SDS011;4949;48.482;9.206;2022-07-23T05:53:26;9.73;;;8.87;;
9819;SDS011;4949;48.482;9.206;2022-07-23T05:58:26;10.13;;;9.23;;
9819;SDS011;4949;48.482;9.206;2022-07-23T06:03:27;10.67;;;9.77;;
9819;SDS011;4949;48.482;9.206;2022-07-23T06:08:30;9.47;;;8.83;;
9819;SDS011;4949;48.482;9.206;2022-07-23T06:13:32;9.50;;;8.70;;
9819;SDS011;4949;48.482;9.206;2022-07-23T06:18:33;8.80;;;8.10;;
9819;SDS011;4949;48.482;9.206;2022-07-23T06:23:38;9.47;;;8.77;;
9819;SDS011;4949;48.482;9.206;2022-07-23T06:28:45;9.93;;;9.03;;
9819;SDS011;4949;48.482;9.206;2022-07-23T06:33:48;9.63;;;8.83;;
9819;SDS011;4949;48.482;9.206;2022-07-23T06:38:48;9.20;;;8.50;;
9819;SDS011;4949;48.482;9.206;2022-07-23T06:43:49;9.90;;;9.10;;
9819;SDS011;4949;48.482;9.206;2022-07-23T06:48:51;8.87;;;8.17;;
9819;SDS011;4949;48.482;9.206;2022-07-23T06:53:54;9.03;;;8.23;;
9819;SDS011;4949;48.482;9.206;2022-07-23T06:58:54;10.13;;;9.33;;
9819;SDS011;4949;48.482;9.206;2022-07-23T07:03:57;9.97;;;9.07;;
9819;SDS011;4949;48.482;9.206;2022-07-23T07:09:00;10.17;;;9.37;;
9819;SDS011;4949;48.482;9.206;2022-07-23T07:14:00;9.30;;;8.60;;
9819;SDS011;4949;48.482;9.206;2022-07-23T07:19:00;8.87;;;8.17;;
9819;SDS011;4949;48.482;9.206;2022-07-23T07:24:01;9.87;;;9.17;;
9819;SDS011;4949;48.482;9.206;2022-07-23T07:29:01;9.63;;;8.83;;
9819;SDS011;4949;48.482;9.206;2022-07-23T07:34:04;8.50;;;7.90;;
9819;SDS011;4949;48.482;9.206;2022-07-23T07:39:09;9.03;;;8.33;;
9819;SDS011;4949;48.482;9.206;2022-07-23T07:44:12;8.67;;;8.07;;
9819;SDS011;4949;48.482;9.206;2022-07-23T07:49:15;8.97;;;8.37;;
9819;SDS011;4949;48.482;9.206;2022-07-23T07:54:19;9.40;;;8.17;;
9819;SDS011;4949;48.482;9.206;2022-07-23T07:59:19;8.47;;;7.87;;
9819;SDS011;4949;48.482;9.206;2022-07-23T08:04:19;8.57;;;7.87;;
9819;SDS011;4949;48.482;9.206;2022-07-23T08:09:20;8.00;;;7.40;;
9819;SDS011;4949;48.482;9.206;2022-07-23T08:14:20;8.60;;;8.00;;
9819;SDS011;4949;48.482;9.206;2022-07-23T08:19:20;8.27;;;7.70;;
9819;SDS011;4949;48.482;9.206;2022-07-23T08:24:25;8.97;;;8.27;;
9819;SDS011;4949;48.482;9.206;2022-07-23T08:29:26;8.80;;;8.10;;
9819;SDS011;4949;48.482;9.206;2022-07-23T08:34:29;8.47;;;7.80;;
9819;SDS011;4949;48.482;9.206;2022-07-23T08:39:32;8.83;;;8.13;;
9819;SDS011;4949;48.482;9.206;2022-07-23T08:44:34;9.23;;;8.43;;
9819;SDS011;4949;48.482;9.206;2022-07-23T08:49:38;8.63;;;8.03;;
9819;SDS011;4949;48.482;9.206;2022-07-23T08:54:39;10.10;;;9.30;;
9819;SDS011;4949;48.482;9.206;2022-07-23T08:59:39;10.00;;;9.30;;
9819;SDS011;4949;48.482;9.206;2022-07-23T09:04:40;9.40;;;8.70;;
9819;SDS011;4949;48.482;9.206;2022-07-23T09:09:43;9.60;;;8.70;;
9819;SDS011;4949;48.482;9.206;2022-07-23T09:14:48;9.67;;;8.80;;
9819;SDS011;4949;48.482;9.206;2022-07-23T09:19:48;8.27;;;7.57;;
9819;SDS011;4949;48.482;9.206;2022-07-23T09:30:07;10.03;;;9.23;;
9819;SDS011;4949;48.482;9.206;2022-07-23T09:35:10;9.17;;;8.53;;
9819;SDS011;4949;48.482;9.206;2022-07-23T09:40:13;9.07;;;8.30;;
9819;SDS011;4949;48.482;9.206;2022-07-23T09:45:17;10.60;;;9.70;;
9819;SDS011;4949;48.482;9.206;2022-07-23T09:50:19;9.77;;;9.00;;
9819;SDS011;4949;48.482;9.206;2022-07-23T09:55:20;9.13;;;8.33;;
9819;SDS011;4949;48.482;9.206;2022-07-23T10:00:35;9.93;;;9.03;;
9819;SDS011;4949;48.482;9.206;2022-07-23T10:05:38;9.57;;;8.77;;
9819;SDS011;4949;48.482;9.206;2022-07-23T10:10:43;10.00;;;9.10;;
9819;SDS011;4949;48.482;9.206;2022-07-23T10:15:46;10.00;;;9.30;;
9819;SDS011;4949;48.482;9.206;2022-07-23T10:20:47;9.47;;;8.77;;
9819;SDS011;4949;48.482;9.206;2022-07-23T10:25:59;10.23;;;9.33;;
9819;SDS011;4949;48.482;9.206;2022-07-23T10:36:44;10.00;;;9.20;;
9819;SDS011;4949;48.482;9.206;2022-07-23T10:41:50;9.50;;;8.80;;
9819;SDS011;4949;48.482;9.206;2022-07-23T10:57:16;10.37;;;9.57;;
9819;SDS011;4949;48.482;9.206;2022-07-23T11:02:21;9.67;;;9.00;;
9819;SDS011;4949;48.482;9.206;2022-07-23T11:07:24;9.40;;;8.80;;
9819;SDS011;4949;48.482;9.206;2022-07-23T11:17:33;9.73;;;9.03;;
9819;SDS011;4949;48.482;9.206;2022-07-23T11:22:58;10.10;;;9.30;;
9819;SDS011;4949;48.482;9.206;2022-07-23T11:28:10;9.50;;;8.60;;
9819;SDS011;4949;48.482;9.206;2022-07-23T11:33:21;10.47;;;9.77;;
9819;SDS011;4949;48.482;9.206;2022-07-23T11:38:22;10.03;;;9.33;;
9819;SDS011;4949;48.482;9.206;2022-07-23T11:43:27;9.33;;;8.43;;
9819;SDS011;4949;48.482;9.206;2022-07-23T11:48:29;10.87;;;10.00;;
9819;SDS011;4949;48.482;9.206;2022-07-23T11:53:33;10.13;;;9.33;;
9819;SDS011;4949;48.482;9.206;2022-07-23T11:58:38;9.57;;;8.77;;
9819;SDS011;4949;48.482;9.206;2022-07-23T12:03:48;10.27;;;9.47;;
9819;SDS011;4949;48.482;9.206;2022-07-23T12:08:51;9.87;;;8.93;;
9819;SDS011;4949;48.482;9.206;2022-07-23T12:13:55;10.13;;;9.33;;
9819;SDS011;4949;48.482;9.206;2022-07-23T12:19:01;10.50;;;9.60;;
9819;SDS011;4949;48.482;9.206;2022-07-23T12:24:10;10.50;;;9.80;;
9819;SDS011;4949;48.482;9.206;2022-07-23T12:29:13;10.70;;;9.90;;
9819;SDS011;4949;48.482;9.206;2022-07-23T12:34:14;9.60;;;8.90;;
9819;SDS011;4949;48.482;9.206;2022-07-23T12:39:29;10.17;;;9.30;;
9819;SDS011;4949;48.482;9.206;2022-07-23T12:44:32;9.70;;;8.87;;
9819;SDS011;4949;48.482;9.206;2022-07-23T12:49:32;8.97;;;8.37;;
9819;SDS011;4949;48.482;9.206;2022-07-23T12:54:38;9.40;;;8.60;;
9819;SDS011;4949;48.482;9.206;2022-07-23T12:59:38;9.97;;;9.17;;
9819;SDS011;4949;48.482;9.206;2022-07-23T13:04:44;9.03;;;8.43;;
9819;SDS011;4949;48.482;9.206;2022-07-23T13:09:44;10.10;;;9.13;;
9819;SDS011;4949;48.482;9.206;2022-07-23T13:14:49;8.73;;;8.13;;
9819;SDS011;4949;48.482;9.206;2022-07-23T13:19:52;9.27;;;8.67;;
9819;SDS011;4949;48.482;9.206;2022-07-23T13:24:52;8.63;;;8.10;;
9819;SDS011;4949;48.482;9.206;2022-07-23T13:29:55;9.07;;;8.37;;
9819;SDS011;4949;48.482;9.206;2022-07-23T13:34:55;9.70;;;9.00;;
9819;SDS011;4949;48.482;9.206;2022-07-23T13:39:55;8.33;;;7.63;;
9819;SDS011;4949;48.482;9.206;2022-07-23T13:44:56;9.43;;;8.83;;
9819;SDS011;4949;48.482;9.206;2022-07-23T13:49:59;9.40;;;8.50;;
9819;SDS011;4949;48.482;9.206;2022-07-23T13:55:02;8.50;;;7.80;;
9819;SDS011;4949;48.482;9.206;2022-07-23T14:00:04;9.43;;;8.80;;
9819;SDS011;4949;48.482;9.206;2022-07-23T14:05:08;8.90;;;8.20;;
9819;SDS011;4949;48.482;9.206;2022-07-23T14:10:10;8.70;;;8.10;;
9819;SDS011;4949;48.482;9.206;2022-07-23T14:15:11;8.60;;;8.00;;
9819;SDS011;4949;48.482;9.206;2022-07-23T14:20:13;8.53;;;7.93;;
9819;SDS011;4949;48.482;9.206;2022-07-23T14:25:14;7.67;;;7.17;;
9819;SDS011;4949;48.482;9.206;2022-07-23T14:30:15;8.97;;;8.27;;
9819;SDS011;4949;48.482;9.206;2022-07-23T14:35:17;8.70;;;8.03;;
9819;SDS011;4949;48.482;9.206;2022-07-23T14:40:19;9.03;;;8.33;;
9819;SDS011;4949;48.482;9.206;2022-07-23T14:45:22;9.00;;;8.30;;
9819;SDS011;4949;48.482;9.206;2022-07-23T14:50:28;8.60;;;7.80;;
9819;SDS011;4949;48.482;9.206;2022-07-23T14:55:31;9.13;;;8.47;;
9819;SDS011;4949;48.482;9.206;2022-07-23T15:00:34;8.80;;;8.20;;
9819;SDS011;4949;48.482;9.206;2022-07-23T15:05:35;8.73;;;8.13;;
9819;SDS011;4949;48.482;9.206;2022-07-23T15:10:37;8.57;;;7.97;;
9819;SDS011;4949;48.482;9.206;2022-07-23T15:15:40;8.40;;;7.80;;
9819;SDS011;4949;48.482;9.206;2022-07-23T15:20:40;9.17;;;8.40;;
9819;SDS011;4949;48.482;9.206;2022-07-23T15:25:41;8.87;;;8.17;;
9819;SDS011;4949;48.482;9.206;2022-07-23T15:30:44;8.70;;;7.90;;
9819;SDS011;4949;48.482;9.206;2022-07-23T15:35:47;8.07;;;7.47;;
9819;SDS011;4949;48.482;9.206;2022-07-23T15:40:50;9.03;;;8.43;;
9819;SDS011;4949;48.482;9.206;2022-07-23T15:45:51;8.43;;;7.93;;
9819;SDS011;4949;48.482;9.206;2022-07-23T15:50:51;9.00;;;8.30;;
9819;SDS011;4949;48.482;9.206;2022-07-23T15:55:52;9.20;;;8.50;;
9819;SDS011;4949;48.482;9.206;2022-07-23T16:00:55;9.30;;;8.50;;
9819;SDS011;4949;48.482;9.206;2022-07-23T16:05:56;9.27;;;8.57;;
9819;SDS011;4949;48.482;9.206;2022-07-23T16:10:59;9.07;;;8.37;;
9819;SDS011;4949;48.482;9.206;2022-07-23T16:16:00;10.00;;;9.30;;
9819;SDS011;4949;48.482;9.206;2022-07-23T16:21:04;9.33;;;8.73;;
9819;SDS011;4949;48.482;9.206;2022-07-23T16:26:04;8.63;;;8.03;;
9819;SDS011;4949;48.482;9.206;2022-07-23T16:31:05;8.93;;;8.33;;
9819;SDS011;4949;48.482;9.206;2022-07-23T16:36:06;9.27;;;8.50;;
9819;SDS011;4949;48.482;9.206;2022-07-23T16:41:07;10.40;;;9.70;;
9819;SDS011;4949;48.482;9.206;2022-07-23T16:46:07;9.60;;;8.70;;
9819;SDS011;4949;48.482;9.206;2022-07-23T16:51:08;10.00;;;9.00;;
9819;SDS011;4949;48.482;9.206;2022-07-23T16:56:08;10.67;;;9.87;;
9819;SDS011;4949;48.482;9.206;2022-07-23T17:01:09;9.80;;;9.00;;
9819;SDS011;4949;48.482;9.206;2022-07-23T17:06:09;11.97;;;10.63;;
9819;SDS011;4949;48.482;9.206;2022-07-23T17:11:09;10.40;;;9.50;;
9819;SDS011;4949;48.482;9.206;2022-07-23T17:16:10;13.23;;;11.90;;
9819;SDS011;4949;48.482;9.206;2022-07-23T17:21:10;9.97;;;9.17;;
9819;SDS011;4949;48.482;9.206;2022-07-23T17:26:11;10.77;;;9.97;;
9819;SDS011;4949;48.482;9.206;2022-07-23T17:31:14;13.30;;;11.20;;
9819;SDS011;4949;48.482;9.206;2022-07-23T17:36:15;9.57;;;8.73;;
9819;SDS011;4949;48.482;9.206;2022-07-23T17:41:18;10.40;;;9.40;;
9819;SDS011;4949;48.482;9.206;2022-07-23T17:46:19;9.87;;;9.13;;
9819;SDS011;4949;48.482;9.206;2022-07-23T17:51:20;9.30;;;8.60;;
9819;SDS011;4949;48.482;9.206;2022-07-23T17:56:20;9.10;;;8.30;;
9819;SDS011;4949;48.482;9.206;2022-07-23T18:01:21;9.43;;;8.63;;
9819;SDS011;4949;48.482;9.206;2022-07-23T18:06:21;9.57;;;8.87;;
9819;SDS011;4949;48.482;9.206;2022-07-23T18:11:22;10.57;;;9.87;;
9819;SDS011;4949;48.482;9.206;2022-07-23T18:16:22;9.60;;;8.90;;
9819;SDS011;4949;48.482;9.206;2022-07-23T18:21:23;9.60;;;8.80;;
9819;SDS011;4949;48.482;9.206;2022-07-23T18:26:23;10.13;;;9.33;;
9819;SDS011;4949;48.482;9.206;2022-07-23T18:31:24;9.60;;;8.70;;
9819;SDS011;4949;48.482;9.206;2022-07-23T18:36:27;9.30;;;8.70;;
9819;SDS011;4949;48.482;9.206;2022-07-23T18:41:27;10.47;;;9.67;;
9819;SDS011;4949;48.482;9.206;2022-07-23T18:46:30;9.50;;;8.80;;
9819;SDS011;4949;48.482;9.206;2022-07-23T18:51:36;9.83;;;9.03;;
9819;SDS011;4949;48.482;9.206;2022-07-23T18:56:37;10.90;;;10.10;;
9819;SDS011;4949;48.482;9.206;2022-07-23T19:01:37;11.27;;;10.17;;
9819;SDS011;4949;48.482;9.206;2022-07-23T19:06:42;11.07;;;10.17;;
9819;SDS011;4949;48.482;9.206;2022-07-23T19:11:42;11.60;;;10.80;;
9819;SDS011;4949;48.482;9.206;2022-07-23T19:16:45;10.73;;;9.83;;
9819;SDS011;4949;48.482;9.206;2022-07-23T19:21:45;10.53;;;9.67;;
9819;SDS011;4949;48.482;9.206;2022-07-23T19:26:50;10.20;;;9.40;;
9819;SDS011;4949;48.482;9.206;2022-07-23T19:31:51;11.90;;;10.73;;
9819;SDS011;4949;48.482;9.206;2022-07-23T19:36:51;14.13;;;13.00;;
9819;SDS011;4949;48.482;9.206;2022-07-23T19:41:52;12.73;;;11.83;;
9819;SDS011;4949;48.482;9.206;2022-07-23T19:46:52;11.37;;;10.43;;
9819;SDS011;4949;48.482;9.206;2022-07-23T19:51:52;11.80;;;10.93;;
9819;SDS011;4949;48.482;9.206;2022-07-23T19:56:55;11.87;;;10.77;;
9819;SDS011;4949;48.482;9.206;2022-07-23T20:01:55;12.77;;;11.77;;
9819;SDS011;4949;48.482;9.206;2022-07-23T20:06:56;12.80;;;11.80;;
9819;SDS011;4949;48.482;9.206;2022-07-23T20:11:57;11.17;;;10.43;;
9819;SDS011;4949;48.482;9.206;2022-07-23T20:17:00;11.97;;;10.97;;
9819;SDS011;4949;48.482;9.206;2022-07-23T20:22:04;11.63;;;10.73;;
9819;SDS011;4949;48.482;9.206;2022-07-23T20:27:04;11.90;;;10.93;;
9819;SDS011;4949;48.482;9.206;2022-07-23T20:32:07;12.53;;;11.53;;
9819;SDS011;4949;48.482;9.206;2022-07-23T20:37:12;13.10;;;12.03;;
9819;SDS011;4949;48.482;9.206;2022-07-23T20:42:15;13.60;;;12.50;;
9819;SDS011;4949;48.482;9.206;2022-07-23T20:47:16;12.83;;;11.83;;
9819;SDS011;4949;48.482;9.206;2022-07-23T20:52:17;12.63;;;11.63;;
9819;SDS011;4949;48.482;9.206;2022-07-23T20:57:20;13.10;;;12.10;;
9819;SDS011;4949;48.482;9.206;2022-07-23T21:02:20;12.57;;;11.53;;
9819;SDS011;4949;48.482;9.206;2022-07-23T21:07:21;11.83;;;10.93;;
9819;SDS011;4949;48.482;9.206;2022-07-23T21:12:21;11.90;;;10.97;;
9819;SDS011;4949;48.482;9.206;2022-07-23T21:17:25;11.70;;;10.67;;
9819;SDS011;4949;48.482;9.206;2022-07-23T21:22:25;10.60;;;9.80;;
9819;SDS011;4949;48.482;9.206;2022-07-23T21:27:29;12.60;;;11.70;;
9819;SDS011;4949;48.482;9.206;2022-07-23T21:32:29;12.60;;;11.30;;
9819;SDS011;4949;48.482;9.206;2022-07-23T21:37:31;13.47;;;12.43;;
9819;SDS011;4949;48.482;9.206;2022-07-23T21:42:31;11.77;;;10.87;;
9819;SDS011;4949;48.482;9.206;2022-07-23T21:47:34;12.00;;;11.10;;
9819;SDS011;4949;48.482;9.206;2022-07-23T21:52:36;12.13;;;11.13;;
9819;SDS011;4949;48.482;9.206;2022-07-23T21:57:37;13.03;;;12.10;;
9819;SDS011;4949;48.482;9.206;2022-07-23T22:02:38;11.93;;;11.13;;
9819;SDS011;4949;48.482;9.206;2022-07-23T22:07:40;12.27;;;11.20;;
9819;SDS011;4949;48.482;9.206;2022-07-23T22:12:41;14.83;;;13.53;;
9819;SDS011;4949;48.482;9.206;2022-07-23T22:17:44;14.80;;;13.40;;
9819;SDS011;4949;48.482;9.206;2022-07-23T22:22:47;13.13;;;12.10;;
9819;SDS011;4949;48.482;9.206;2022-07-23T22:27:50;12.90;;;11.90;;
9819;SDS011;4949;48.482;9.206;2022-07-23T22:32:53;13.07;;;12.07;;
9819;SDS011;4949;48.482;9.206;2022-07-23T22:37:54;14.03;;;12.63;;
9819;SDS011;4949;48.482;9.206;2022-07-23T22:42:54;14.00;;;12.90;;
9819;SDS011;4949;48.482;9.206;2022-07-23T22:47:54;12.80;;;11.70;;
9819;SDS011;4949;48.482;9.206;2022-07-23T22:52:58;11.47;;;10.60;;
9819;SDS011;4949;48.482;9.206;2022-07-23T22:57:58;13.43;;;11.77;;
9819;SDS011;4949;48.482;9.206;2022-07-23T23:02:59;12.73;;;11.67;;
9819;SDS011;4949;48.482;9.206;2022-07-23T23:08:00;15.20;;;12.83;;
9819;SDS011;4949;48.482;9.206;2022-07-23T23:13:00;14.40;;;13.30;;
9819;SDS011;4949;48.482;9.206;2022-07-23T23:18:03;13.80;;;12.70;;
9819;SDS011;4949;48.482;9.206;2022-07-23T23:23:03;11.77;;;10.67;;
9819;SDS011;4949;48.482;9.206;2022-07-23T23:28:03;16.00;;;14.60;;
9819;SDS011;4949;48.482;9.206;2022-07-23T23:33:06;10.87;;;10.10;;
9819;SDS011;4949;48.482;9.206;2022-07-23T23:38:07;12.13;;;11.23;;
9819;SDS011;4949;48.482;9.206;2022-07-23T23:43:07;12.27;;;11.07;;
9819;SDS011;4949;48.482;9.206;2022-07-23T23:48:07;12.77;;;11.77;;
9819;SDS011;4949;48.482;9.206;2022-07-23T23:53:10;12.67;;;11.67;;
9819;SDS011;4949;48.482;9.206;2022-07-23T23:58:11;12.77;;;11.67;;
